createdAt,value
2023-05-04T00:01:37.057Z,99365.88
2023-05-04T00:07:00.382Z,99358.70
2023-05-04T00:12:22.080Z,99354.13
2023-05-04T00:17:43.929Z,99357.45
2023-05-04T00:23:06.455Z,99353.38
2023-05-04T00:28:28.055Z,99350.48
2023-05-04T00:33:50.030Z,99346.80
2023-05-04T00:39:12.093Z,99342.78
2023-05-04T00:44:34.813Z,99342.40
2023-05-04T00:49:57.321Z,99334.39
2023-05-04T00:55:19.446Z,99328.89
2023-05-04T01:00:41.531Z,99328.20
2023-05-04T01:06:39.987Z,99327.30
2023-05-04T01:12:21.728Z,99322.89
2023-05-04T01:17:43.685Z,99320.70
2023-05-04T01:23:05.491Z,99320.66
2023-05-04T01:28:38.099Z,99323.55
2023-05-04T01:34:00.358Z,99320.66
2023-05-04T01:39:23.002Z,99316.16
2023-05-04T01:44:44.721Z,99313.81
2023-05-04T01:50:07.126Z,99306.02
2023-05-04T01:55:29.195Z,99304.34
2023-05-04T02:00:51.055Z,99304.35
2023-05-04T02:06:13.445Z,99307.74
2023-05-04T02:11:35.031Z,99308.13
2023-05-04T02:16:56.821Z,99305.33
2023-05-04T02:22:18.367Z,99301.88
2023-05-04T02:27:40.915Z,99309.16
2023-05-04T02:33:02.929Z,99304.77
2023-05-04T02:38:24.347Z,99309.71
2023-05-04T02:43:46.335Z,99312.61
2023-05-04T02:49:08.530Z,99311.84
2023-05-04T02:54:30.001Z,99314.98
2023-05-04T02:59:51.834Z,99313.87
2023-05-04T03:05:13.945Z,99318.63
2023-05-04T03:10:35.783Z,99316.27
2023-05-04T03:15:58.501Z,99313.45
2023-05-04T03:21:19.957Z,99308.45
2023-05-04T03:26:45.699Z,99313.80
2023-05-04T03:32:07.994Z,99312.83
2023-05-04T03:37:30.171Z,99313.90
2023-05-04T03:42:52.631Z,99321.70
2023-05-04T03:48:14.966Z,99322.31
2023-05-04T03:53:39.082Z,99317.81
2023-05-04T03:59:01.885Z,99315.52
2023-05-04T04:04:25.547Z,99316.50
2023-05-04T04:09:48.763Z,99320.06
2023-05-04T04:15:10.900Z,99325.89
2023-05-04T04:20:33.140Z,99324.92
2023-05-04T04:25:54.649Z,99321.44
2023-05-04T04:31:19.492Z,99325.54
2023-05-04T04:36:41.429Z,99325.04
2023-05-04T04:42:03.922Z,99322.70
2023-05-04T04:47:25.675Z,99319.98
2023-05-04T04:52:47.347Z,99318.83
2023-05-04T04:58:09.479Z,99316.75
2023-05-04T05:03:32.081Z,99320.33
2023-05-04T05:08:53.657Z,99316.39
2023-05-04T05:14:15.560Z,99316.51
2023-05-04T05:19:38.144Z,99318.63
2023-05-04T05:25:00.224Z,99321.69
2023-05-04T05:30:22.027Z,99327.05
2023-05-04T05:35:48.361Z,99324.58
2023-05-04T05:41:13.016Z,99326.60
2023-05-04T05:46:34.598Z,99328.54
2023-05-04T05:51:57.215Z,99325.84
2023-05-04T05:57:20.721Z,99323.91
2023-05-04T06:02:42.551Z,99324.27
2023-05-04T06:08:04.435Z,99323.09
2023-05-04T06:13:26.568Z,99321.46
2023-05-04T06:18:48.429Z,99322.74
2023-05-04T06:24:10.004Z,99318.95
2023-05-04T06:29:33.756Z,99323.67
2023-05-04T06:34:55.759Z,99319.25
2023-05-04T06:40:18.307Z,99317.77
2023-05-04T06:45:40.331Z,99318.19
2023-05-04T06:51:03.065Z,99315.83
2023-05-04T06:56:25.063Z,99315.21
2023-05-04T07:01:47.811Z,99307.89
2023-05-04T07:07:09.484Z,99315.30
2023-05-04T07:12:31.335Z,99310.97
2023-05-04T07:17:53.036Z,99315.39
2023-05-04T07:23:15.165Z,99313.14
2023-05-04T07:28:37.262Z,99317.62
2023-05-04T07:33:59.340Z,99313.83
2023-05-04T07:39:23.486Z,99319.84
2023-05-04T07:44:45.164Z,99316.46
2023-05-04T07:50:09.651Z,99319.34
2023-05-04T07:55:31.624Z,99313.77
2023-05-04T08:00:53.200Z,99309.42
2023-05-04T08:06:15.119Z,99307.59
2023-05-04T08:11:37.981Z,99302.26
2023-05-04T08:17:00.738Z,99302.75
2023-05-04T08:22:22.618Z,99312.23
2023-05-04T08:27:45.472Z,99311.80
2023-05-04T08:33:08.492Z,99321.58
2023-05-04T08:38:33.506Z,99321.30
2023-05-04T08:43:55.494Z,99312.21
2023-05-04T08:49:17.426Z,99307.92
2023-05-04T08:54:40.076Z,99316.44
2023-05-04T09:00:02.195Z,99315.02
2023-05-04T09:05:23.955Z,99304.34
2023-05-04T09:10:45.893Z,99305.25
2023-05-04T09:16:08.321Z,99302.89
2023-05-04T09:21:31.261Z,99304.28
2023-05-04T09:27:13.173Z,99292.52
2023-05-04T09:32:55.872Z,99290.17
2023-05-04T09:38:28.724Z,99283.45
2023-05-04T09:43:50.651Z,99285.02
2023-05-04T09:49:13.887Z,99283.09
2023-05-04T09:54:41.537Z,99272.48
2023-05-04T10:00:04.632Z,99267.10
2023-05-04T10:05:30.863Z,99264.64
2023-05-04T10:10:54.462Z,99258.23
2023-05-04T10:16:44.071Z,99254.26
2023-05-04T10:22:14.732Z,99247.49
2023-05-04T10:27:43.339Z,99238.65
2023-05-04T10:33:05.237Z,99226.11
2023-05-04T10:38:38.562Z,99222.38
2023-05-04T10:44:04.727Z,99219.23
2023-05-04T10:49:27.055Z,99213.73
2023-05-04T10:55:01.546Z,99209.11
2023-05-04T11:00:24.770Z,99206.80
2023-05-04T11:05:50.828Z,99202.02
2023-05-04T11:11:13.140Z,99196.52
2023-05-04T11:16:34.980Z,99196.31
2023-05-04T11:21:57.007Z,99193.55
2023-05-04T11:27:27.659Z,99192.60
2023-05-04T11:32:54.239Z,99183.53
2023-05-04T11:38:20.289Z,99181.44
2023-05-04T11:43:44.855Z,99175.31
2023-05-04T11:49:06.820Z,99168.06
2023-05-04T11:54:28.744Z,99166.38
2023-05-04T11:59:50.894Z,99160.29
2023-05-04T12:05:14.130Z,99156.61
2023-05-04T12:10:36.062Z,99155.88
2023-05-04T12:16:08.632Z,99151.63
2023-05-04T12:21:31.431Z,99143.64
2023-05-04T12:26:53.067Z,99136.29
2023-05-04T12:32:15.154Z,99139.55
2023-05-04T12:37:39.194Z,99132.02
2023-05-04T12:43:01.262Z,99130.48
2023-05-04T12:48:23.074Z,99122.84
2023-05-04T12:53:44.868Z,99117.50
2023-05-04T12:59:06.748Z,99120.27
2023-05-04T13:04:28.573Z,99106.09
2023-05-04T13:09:50.399Z,99102.73
2023-05-04T13:15:13.944Z,99097.20
2023-05-04T13:20:35.694Z,99090.75
2023-05-04T13:25:57.601Z,99080.34
2023-05-04T13:31:21.786Z,99073.17
2023-05-04T13:36:43.989Z,99069.94
2023-05-04T13:42:05.904Z,99063.14
2023-05-04T13:47:27.748Z,99060.29
2023-05-04T13:52:49.757Z,99052.95
2023-05-04T13:58:11.809Z,99051.64
2023-05-04T14:03:33.841Z,99046.67
2023-05-04T14:08:57.560Z,99042.64
2023-05-04T14:14:19.290Z,99041.70
2023-05-04T14:19:41.313Z,99033.19
2023-05-04T14:25:06.181Z,99026.15
2023-05-04T14:30:28.075Z,99022.34
2023-05-04T14:35:49.804Z,99021.08
2023-05-04T14:41:11.634Z,99023.02
2023-05-04T14:46:33.893Z,99018.79
2023-05-04T14:51:55.892Z,99015.34
2023-05-04T14:57:18.324Z,99011.99
2023-05-04T15:02:42.292Z,99017.29
2023-05-04T15:08:07.684Z,99014.45
2023-05-04T15:13:29.436Z,99006.78
2023-05-04T15:18:51.377Z,98996.55
2023-05-04T15:24:13.188Z,98996.61
2023-05-04T15:29:40.567Z,98997.64
2023-05-04T15:35:06.335Z,98992.73
2023-05-04T15:40:28.907Z,98984.90
2023-05-04T15:45:52.852Z,98979.30
2023-05-04T15:51:15.012Z,98975.26
2023-05-04T15:56:36.810Z,98971.66
2023-05-04T16:01:58.510Z,98974.23
2023-05-04T16:07:20.361Z,98972.94
2023-05-04T16:12:42.112Z,98969.77
2023-05-04T16:18:04.391Z,98972.02
2023-05-04T16:23:27.130Z,98974.08
2023-05-04T16:28:52.197Z,98969.05
2023-05-04T16:34:16.341Z,98968.05
2023-05-04T16:39:38.498Z,98966.16
2023-05-04T16:45:01.062Z,98965.45
2023-05-04T16:50:23.275Z,98973.95
2023-05-04T16:55:46.976Z,98971.92
2023-05-04T17:01:10.342Z,98975.94
2023-05-04T17:06:33.136Z,98977.80
2023-05-04T17:11:55.220Z,98977.86
2023-05-04T17:17:17.393Z,98980.56
2023-05-04T17:22:38.940Z,98980.84
2023-05-04T17:28:01.149Z,98977.09
2023-05-04T17:33:23.947Z,98977.33
2023-05-04T17:38:45.630Z,98977.73
2023-05-04T17:44:07.438Z,98980.54
2023-05-04T17:49:29.483Z,98983.88
2023-05-04T17:54:54.012Z,98989.11
2023-05-04T18:00:16.535Z,98995.19
2023-05-04T18:05:41.309Z,99003.87
2023-05-04T18:11:03.404Z,99005.59
2023-05-04T18:16:25.765Z,99014.79
2023-05-04T18:21:48.502Z,99020.52
2023-05-04T18:27:10.436Z,99027.79
2023-05-04T18:32:32.470Z,99030.20
2023-05-04T18:37:56.366Z,99033.48
2023-05-04T18:43:21.104Z,99024.81
2023-05-04T18:48:42.731Z,99036.56
2023-05-04T18:54:04.968Z,99039.11
2023-05-04T18:59:27.098Z,99039.06
2023-05-04T19:04:50.805Z,99046.80
2023-05-04T19:10:12.674Z,99048.15
2023-05-04T19:15:34.512Z,99041.40
2023-05-04T19:20:56.318Z,99042.05
2023-05-04T19:26:18.242Z,99040.97
2023-05-04T19:31:43.757Z,99039.56
2023-05-04T19:37:05.613Z,99039.52
2023-05-04T19:42:28.565Z,99039.64
2023-05-04T19:47:53.479Z,99039.23
2023-05-04T19:53:16.790Z,99035.39
2023-05-04T19:58:39.056Z,99034.30
2023-05-04T20:04:03.393Z,99028.05
2023-05-04T20:09:25.627Z,99018.53
2023-05-04T20:14:47.350Z,99019.55
2023-05-04T20:20:10.883Z,99016.05
2023-05-04T20:25:32.812Z,99017.17
2023-05-04T20:30:56.690Z,99018.48
2023-05-04T20:36:18.488Z,99009.43
2023-05-04T20:41:40.798Z,99013.32
2023-05-04T20:47:02.763Z,99009.65
2023-05-04T20:52:28.073Z,99010.46
2023-05-04T20:57:52.318Z,99010.39
2023-05-04T21:03:14.875Z,99004.15
2023-05-04T21:08:39.681Z,99000.83
2023-05-04T21:14:01.237Z,99003.25
2023-05-04T21:19:23.138Z,98997.59
2023-05-04T21:24:49.516Z,98993.05
2023-05-04T21:30:11.472Z,98987.66
2023-05-04T21:35:33.360Z,98984.98
2023-05-04T21:40:55.277Z,98983.36
2023-05-04T21:46:17.146Z,98976.95
2023-05-04T21:51:38.740Z,98974.46
2023-05-04T21:57:01.266Z,98977.84
2023-05-04T22:02:25.024Z,98979.81
2023-05-04T22:07:48.832Z,98980.40
2023-05-04T22:13:11.698Z,98982.70
2023-05-04T22:18:34.096Z,98984.34
2023-05-04T22:23:55.929Z,98982.95
2023-05-04T22:29:17.982Z,98974.70
2023-05-04T22:34:40.495Z,98975.34
2023-05-04T22:40:06.684Z,98974.97
2023-05-04T22:45:28.468Z,98980.81
2023-05-04T22:50:50.993Z,98975.23
2023-05-04T22:56:12.942Z,98974.95
2023-05-04T23:01:35.046Z,98972.35
2023-05-04T23:06:57.188Z,98973.21
2023-05-04T23:12:18.605Z,98981.36
2023-05-04T23:17:41.279Z,98980.76
2023-05-04T23:23:03.369Z,98977.40
2023-05-04T23:28:25.149Z,98971.15
2023-05-04T23:33:51.363Z,98967.18
2023-05-04T23:39:13.055Z,98958.73
2023-05-04T23:44:34.978Z,98963.64
2023-05-04T23:49:56.789Z,98959.58
2023-05-04T23:55:18.779Z,98956.22
